createdAt,value
2023-01-19T00:01:33.114Z,98774.70
2023-01-19T00:04:00.976Z,98775.20
2023-01-19T00:06:28.955Z,98776.34
2023-01-19T00:08:56.777Z,98773.25
2023-01-19T00:11:24.613Z,98778.58
2023-01-19T00:13:53.612Z,98790.69
2023-01-19T00:16:23.288Z,98796.18
2023-01-19T00:18:51.972Z,98808.52
2023-01-19T00:21:21.663Z,98825.70
2023-01-19T00:23:52.654Z,98830.75
2023-01-19T00:26:22.158Z,98836.95
2023-01-19T00:28:50.668Z,98842.69
2023-01-19T00:31:20.729Z,98846.88
2023-01-19T00:33:49.377Z,98855.09
2023-01-19T00:36:17.241Z,98860.35
2023-01-19T00:38:45.061Z,98862.58
2023-01-19T00:41:12.857Z,98861.58
2023-01-19T00:43:41.049Z,98863.75
2023-01-19T00:46:09.188Z,98858.41
2023-01-19T00:48:37.017Z,98858.23
2023-01-19T00:51:04.963Z,98863.16
2023-01-19T00:53:32.877Z,98864.90
2023-01-19T00:56:00.697Z,98881.95
2023-01-19T00:58:28.542Z,98886.02
2023-01-19T01:01:03.590Z,98890.00
2023-01-19T01:03:32.523Z,98891.41
2023-01-19T01:06:00.301Z,98887.48
2023-01-19T01:08:28.351Z,98888.05
2023-01-19T01:10:56.635Z,98887.46
2023-01-19T01:13:27.243Z,98884.98
2023-01-19T01:15:56.140Z,98887.30
2023-01-19T01:18:24.947Z,98895.27
2023-01-19T01:20:54.574Z,98902.93
2023-01-19T01:23:23.874Z,98907.36
2023-01-19T01:25:51.725Z,98908.52
2023-01-19T01:28:19.533Z,98908.31
2023-01-19T01:30:47.595Z,98908.86
2023-01-19T01:33:15.402Z,98912.55
2023-01-19T01:36:03.353Z,98917.94
2023-01-19T01:38:31.095Z,98921.95
2023-01-19T01:40:58.775Z,98928.91
2023-01-19T01:44:04.698Z,98930.73
2023-01-19T01:46:32.426Z,98933.40
2023-01-19T01:49:07.297Z,98934.84
2023-01-19T01:51:41.070Z,98929.97
2023-01-19T01:54:22.147Z,98933.35
2023-01-19T01:56:52.258Z,98937.09
2023-01-19T01:59:29.837Z,98939.61
2023-01-19T02:02:19.157Z,98941.38
2023-01-19T02:04:50.543Z,98943.59
2023-01-19T02:07:45.245Z,98945.19
2023-01-19T02:10:31.806Z,98940.60
2023-01-19T02:13:18.693Z,98940.70
2023-01-19T02:15:52.721Z,98939.29
2023-01-19T02:18:22.526Z,98944.54
2023-01-19T02:21:07.608Z,98948.56
2023-01-19T02:23:46.686Z,98951.80
2023-01-19T02:26:18.792Z,98953.39
2023-01-19T02:28:50.574Z,98955.84
2023-01-19T02:31:19.423Z,98959.55
2023-01-19T02:33:47.784Z,98959.71
2023-01-19T02:36:16.982Z,98961.05
2023-01-19T02:38:46.047Z,98960.27
2023-01-19T02:41:17.234Z,98961.92
2023-01-19T02:43:45.964Z,98965.00
2023-01-19T02:46:15.620Z,98970.58
2023-01-19T02:48:44.028Z,98972.10
2023-01-19T02:51:15.510Z,98972.40
2023-01-19T02:53:47.579Z,98975.30
2023-01-19T02:56:46.651Z,98978.30
2023-01-19T02:59:43.156Z,98978.75
2023-01-19T03:02:41.261Z,98980.04
2023-01-19T03:05:41.810Z,98982.69
2023-01-19T03:08:24.744Z,98978.58
2023-01-19T03:11:02.603Z,98974.98
2023-01-19T03:13:34.507Z,98970.73
2023-01-19T03:16:12.044Z,98970.54
2023-01-19T03:18:42.727Z,98972.33
2023-01-19T03:21:10.869Z,98979.34
2023-01-19T03:23:41.770Z,98978.24
2023-01-19T03:26:11.560Z,98973.98
2023-01-19T03:28:40.809Z,98979.33
2023-01-19T03:35:32.118Z,98977.19
2023-01-19T03:38:01.183Z,98982.89
2023-01-19T03:40:30.674Z,98982.34
2023-01-19T03:43:00.669Z,98979.89
2023-01-19T03:45:30.898Z,98982.83
2023-01-19T03:47:58.925Z,98986.23
2023-01-19T03:50:29.610Z,98984.69
2023-01-19T03:53:12.427Z,98988.14
2023-01-19T03:55:42.449Z,98992.38
2023-01-19T03:58:10.794Z,98989.51
2023-01-19T04:00:39.007Z,98990.34
2023-01-19T04:03:10.905Z,98993.14
2023-01-19T04:05:39.561Z,98996.07
2023-01-19T04:08:07.633Z,98996.70
2023-01-19T04:10:36.799Z,98999.10
2023-01-19T04:13:04.869Z,98995.70
2023-01-19T04:15:33.289Z,98991.23
2023-01-19T04:18:01.259Z,98997.16
2023-01-19T04:20:29.550Z,98996.37
2023-01-19T04:23:01.534Z,99000.98
2023-01-19T04:25:29.689Z,98996.61
2023-01-19T04:28:00.130Z,99000.28
2023-01-19T04:30:28.167Z,98998.02
2023-01-19T04:32:56.292Z,99000.38
2023-01-19T04:35:24.124Z,98999.23
2023-01-19T04:37:51.884Z,98999.87
2023-01-19T04:40:19.705Z,98998.20
2023-01-19T04:42:47.547Z,99004.54
2023-01-19T04:45:15.420Z,99012.13
2023-01-19T04:47:43.239Z,99016.42
2023-01-19T04:50:11.730Z,99021.89
2023-01-19T04:52:39.658Z,99022.92
2023-01-19T04:55:08.174Z,99030.50
2023-01-19T04:57:36.094Z,99033.46
2023-01-19T05:00:06.681Z,99038.89
2023-01-19T05:02:35.063Z,99046.07
2023-01-19T05:05:03.633Z,99047.88
2023-01-19T05:07:31.475Z,99052.15
2023-01-19T05:09:59.315Z,99061.09
2023-01-19T05:12:27.544Z,99065.31
2023-01-19T05:14:55.283Z,99074.19
2023-01-19T05:17:23.270Z,99080.92
2023-01-19T05:19:51.390Z,99088.27
2023-01-19T05:22:19.164Z,99090.16
2023-01-19T05:24:46.919Z,99099.25
2023-01-19T05:27:14.730Z,99112.33
2023-01-19T05:29:42.479Z,99116.08
2023-01-19T05:32:10.360Z,99117.76
2023-01-19T05:34:38.250Z,99115.24
2023-01-19T05:37:06.070Z,99112.50
2023-01-19T05:39:34.133Z,99113.72
2023-01-19T05:42:01.925Z,99119.02
2023-01-19T05:44:29.746Z,99120.38
2023-01-19T05:46:57.725Z,99121.05
2023-01-19T05:49:25.726Z,99121.08
2023-01-19T05:51:53.563Z,99121.18
2023-01-19T05:54:21.607Z,99124.26
2023-01-19T05:56:49.346Z,99123.14
2023-01-19T05:59:23.923Z,99127.56
2023-01-19T06:01:52.509Z,99128.42
2023-01-19T06:04:20.437Z,99133.79
2023-01-19T06:06:49.182Z,99130.59
2023-01-19T06:09:17.788Z,99135.85
2023-01-19T06:11:46.199Z,99138.50
2023-01-19T06:14:14.020Z,99145.46
2023-01-19T06:16:42.061Z,99155.77
2023-01-19T06:19:09.931Z,99161.11
2023-01-19T06:21:37.768Z,99170.17
2023-01-19T06:24:05.960Z,99178.92
2023-01-19T06:26:33.715Z,99183.48
2023-01-19T06:29:01.571Z,99178.84
2023-01-19T06:31:29.369Z,99178.39
2023-01-19T06:33:57.246Z,99182.42
2023-01-19T06:36:25.241Z,99174.84
2023-01-19T06:38:52.988Z,99177.29
2023-01-19T06:41:20.801Z,99177.34
2023-01-19T06:43:48.673Z,99175.86
2023-01-19T06:46:16.531Z,99180.23
2023-01-19T06:48:44.309Z,99176.83
2023-01-19T06:51:12.286Z,99180.29
2023-01-19T06:53:40.059Z,99181.17
2023-01-19T06:56:09.685Z,99189.04
2023-01-19T06:58:37.925Z,99193.46
2023-01-19T07:01:06.895Z,99196.48
2023-01-19T07:03:35.954Z,99196.14
2023-01-19T07:06:06.607Z,99198.38
2023-01-19T07:08:38.256Z,99198.81
2023-01-19T07:11:22.167Z,99201.05
2023-01-19T07:13:55.757Z,99214.92
2023-01-19T07:16:24.232Z,99218.06
2023-01-19T07:18:52.099Z,99218.84
2023-01-19T07:21:19.896Z,99219.54
2023-01-19T07:23:51.696Z,99217.87
2023-01-19T07:26:21.551Z,99215.14
2023-01-19T07:28:49.739Z,99216.44
2023-01-19T07:31:18.242Z,99218.92
2023-01-19T07:33:46.828Z,99216.23
2023-01-19T07:36:15.017Z,99215.09
2023-01-19T07:38:42.836Z,99213.49
2023-01-19T07:41:10.706Z,99211.20
2023-01-19T07:43:38.594Z,99212.45
2023-01-19T07:46:08.182Z,99210.96
2023-01-19T07:48:36.286Z,99208.55
2023-01-19T07:51:05.824Z,99208.34
2023-01-19T07:53:33.980Z,99210.70
2023-01-19T07:56:01.811Z,99208.94
2023-01-19T07:58:30.032Z,99210.58
2023-01-19T08:00:57.974Z,99209.11
2023-01-19T08:03:25.845Z,99209.83
2023-01-19T08:05:54.383Z,99205.23
2023-01-19T08:08:22.127Z,99210.12
2023-01-19T08:10:51.007Z,99210.92
2023-01-19T08:13:19.112Z,99214.98
2023-01-19T08:15:51.613Z,99211.44
2023-01-19T08:18:20.207Z,99211.09
2023-01-19T08:20:48.247Z,99212.30
2023-01-19T08:23:18.048Z,99213.07
2023-01-19T08:25:46.183Z,99218.11
2023-01-19T08:28:15.795Z,99217.39
2023-01-19T08:30:44.926Z,99219.92
2023-01-19T08:33:13.746Z,99225.02
2023-01-19T08:35:48.858Z,99226.70
2023-01-19T08:38:17.128Z,99239.45
2023-01-19T08:40:46.317Z,99240.08
2023-01-19T08:43:15.967Z,99242.68
2023-01-19T08:45:48.782Z,99236.71
2023-01-19T08:48:18.105Z,99240.80
2023-01-19T08:50:46.783Z,99243.11
2023-01-19T08:53:15.473Z,99244.50
2023-01-19T08:55:43.346Z,99244.59
2023-01-19T08:58:11.114Z,99249.96
2023-01-19T14:02:39.950Z,99231.91
2023-01-19T14:05:25.566Z,99238.83
2023-01-19T14:08:04.100Z,99235.91
2023-01-19T14:10:32.898Z,99237.48
2023-01-19T14:13:02.804Z,99237.02
2023-01-19T14:15:33.415Z,99238.05
2023-01-19T14:18:09.637Z,99239.73
2023-01-19T14:20:37.769Z,99240.17
2023-01-19T14:23:07.249Z,99244.11
2023-01-19T14:25:36.523Z,99245.66
2023-01-19T14:28:27.734Z,99247.39
2023-01-19T14:30:55.528Z,99251.89
2023-01-19T14:33:33.623Z,99249.17
2023-01-19T14:36:34.863Z,99250.59
2023-01-19T14:39:03.640Z,99253.08
2023-01-19T14:41:47.987Z,99254.01
2023-01-19T14:44:20.973Z,99256.79
2023-01-19T14:46:48.965Z,99259.33
2023-01-19T14:49:30.283Z,99260.92
2023-01-19T14:51:58.681Z,99263.05
2023-01-19T14:54:38.471Z,99265.67
2023-01-19T14:57:11.584Z,99273.23
2023-01-19T14:59:40.173Z,99273.26
2023-01-19T15:02:12.494Z,99275.80
2023-01-19T15:04:40.765Z,99275.64
2023-01-19T15:07:17.183Z,99280.70
2023-01-19T15:09:46.691Z,99286.37
2023-01-19T15:12:17.534Z,99287.04
2023-01-19T15:14:46.820Z,99284.97
2023-01-19T15:17:17.061Z,99284.86
2023-01-19T15:19:44.833Z,99289.41
2023-01-19T15:22:13.566Z,99290.44
2023-01-19T15:24:42.087Z,99293.00
2023-01-19T15:27:12.183Z,99294.52
2023-01-19T15:29:40.506Z,99301.08
2023-01-19T15:32:13.198Z,99302.45
2023-01-19T15:34:42.389Z,99305.52
2023-01-19T15:37:10.245Z,99304.40
2023-01-19T15:39:38.151Z,99309.27
2023-01-19T15:42:10.763Z,99314.72
2023-01-19T15:44:38.536Z,99318.64
2023-01-19T15:47:06.279Z,99318.77
2023-01-19T15:49:34.096Z,99316.74
2023-01-19T15:52:01.896Z,99321.73
2023-01-19T15:54:29.769Z,99324.27
2023-01-19T15:56:57.762Z,99324.23
2023-01-19T15:59:26.179Z,99327.55
2023-01-19T16:01:54.246Z,99330.70
2023-01-19T16:04:22.175Z,99330.73
2023-01-19T16:06:50.252Z,99334.25
2023-01-19T16:09:20.025Z,99339.84
2023-01-19T16:11:47.837Z,99338.23
2023-01-19T16:14:17.496Z,99340.63
2023-01-19T16:16:48.739Z,99343.78
2023-01-19T16:19:16.573Z,99348.30
2023-01-19T16:21:44.284Z,99351.73
2023-01-19T16:24:12.101Z,99348.85
2023-01-19T16:26:39.876Z,99355.36
2023-01-19T16:29:09.795Z,99351.36
2023-01-19T16:31:38.675Z,99350.20
2023-01-19T16:34:06.992Z,99352.86
2023-01-19T16:36:36.630Z,99355.98
2023-01-19T16:39:07.072Z,99355.36
2023-01-19T16:41:35.619Z,99358.55
2023-01-19T16:44:04.008Z,99359.32
2023-01-19T16:46:38.211Z,99363.73
2023-01-19T16:49:11.318Z,99359.97
2023-01-19T16:51:39.446Z,99357.79
2023-01-19T16:54:07.790Z,99357.59
2023-01-19T16:56:35.660Z,99352.08
2023-01-19T16:59:03.633Z,99348.31
2023-01-19T17:01:31.727Z,99347.47
2023-01-19T17:03:59.907Z,99346.04
2023-01-19T17:06:29.553Z,99348.71
2023-01-19T17:08:57.796Z,99352.45
2023-01-19T17:11:28.451Z,99357.05
2023-01-19T17:14:01.711Z,99359.50
2023-01-19T17:16:31.263Z,99361.61
2023-01-19T17:19:00.562Z,99361.73
2023-01-19T17:21:29.268Z,99358.30
2023-01-19T17:23:57.967Z,99356.14
2023-01-19T17:26:28.444Z,99355.44
2023-01-19T17:29:05.311Z,99354.61
2023-01-19T17:31:34.128Z,99351.70
2023-01-19T17:34:03.422Z,99362.02
2023-01-19T17:36:32.652Z,99364.83
2023-01-19T17:39:04.566Z,99369.41
2023-01-19T17:41:35.158Z,99371.02
2023-01-19T17:44:05.221Z,99380.26
2023-01-19T17:46:36.418Z,99385.63
2023-01-19T17:49:06.301Z,99386.27
2023-01-19T17:51:34.542Z,99382.07
2023-01-19T17:54:04.083Z,99382.39
2023-01-19T17:56:36.909Z,99376.58
2023-01-19T17:59:07.610Z,99372.29
2023-01-19T18:01:39.763Z,99369.23
2023-01-19T18:04:08.123Z,99376.64
2023-01-19T18:06:37.113Z,99385.73
2023-01-19T18:09:07.371Z,99394.59
2023-01-19T18:11:35.486Z,99393.86
2023-01-19T18:14:03.633Z,99389.92
2023-01-19T18:16:32.567Z,99389.73
2023-01-19T18:19:00.875Z,99389.98
2023-01-19T18:21:30.393Z,99399.34
2023-01-19T18:24:01.179Z,99403.02
2023-01-19T18:26:30.469Z,99405.65
2023-01-19T18:28:58.959Z,99407.89
2023-01-19T18:31:27.375Z,99412.35
2023-01-19T18:33:55.247Z,99415.70
2023-01-19T18:36:23.390Z,99416.70
2023-01-19T18:38:51.569Z,99421.55
2023-01-19T18:41:21.295Z,99420.78
2023-01-19T18:43:49.605Z,99420.03
2023-01-19T18:46:18.968Z,99418.64
2023-01-19T18:48:47.010Z,99423.07
2023-01-19T18:51:16.144Z,99418.25
2023-01-19T18:53:45.382Z,99422.86
2023-01-19T18:56:15.801Z,99422.75
2023-01-19T18:58:44.794Z,99424.55
2023-01-19T19:01:18.449Z,99426.18
2023-01-19T19:03:46.320Z,99427.39
2023-01-19T19:06:19.031Z,99429.19
2023-01-19T19:08:48.668Z,99429.54
2023-01-19T19:11:17.347Z,99428.39
2023-01-19T19:13:45.767Z,99428.27
2023-01-19T19:16:14.691Z,99425.45
2023-01-19T19:18:42.915Z,99425.59
2023-01-19T19:21:12.103Z,99424.93
2023-01-19T19:23:39.948Z,99422.23
2023-01-19T19:26:10.059Z,99425.14
2023-01-19T19:28:39.422Z,99423.84
2023-01-19T19:31:12.775Z,99426.17
2023-01-19T19:33:43.391Z,99425.43
2023-01-19T19:36:12.486Z,99422.94
2023-01-19T19:38:42.752Z,99428.08
2023-01-19T19:41:16.773Z,99431.88
2023-01-19T19:43:44.544Z,99436.79
2023-01-19T19:46:13.917Z,99438.65
2023-01-19T19:48:41.995Z,99440.06
2023-01-19T19:51:19.092Z,99445.17
2023-01-19T19:53:51.030Z,99447.27
2023-01-19T19:56:21.674Z,99449.02
2023-01-19T19:58:51.706Z,99454.23
2023-01-19T20:01:22.581Z,99456.02
2023-01-19T20:03:51.454Z,99458.77
2023-01-19T20:06:22.798Z,99461.51
2023-01-19T20:08:55.119Z,99460.23
2023-01-19T20:11:26.860Z,99463.67
2023-01-19T20:13:55.026Z,99468.85
2023-01-19T20:16:23.884Z,99477.12
2023-01-19T20:18:55.639Z,99478.74
2023-01-19T20:21:26.058Z,99481.48
2023-01-19T20:23:55.578Z,99486.73
2023-01-19T20:26:26.673Z,99491.11
2023-01-19T20:28:59.766Z,99496.75
2023-01-19T20:31:30.459Z,99502.12
2023-01-19T20:34:00.454Z,99508.18
2023-01-19T20:36:28.888Z,99518.52
2023-01-19T20:38:57.624Z,99513.71
2023-01-19T20:41:25.989Z,99520.98
2023-01-19T20:43:54.306Z,99529.80
2023-01-19T20:46:22.085Z,99529.41
2023-01-19T20:48:52.993Z,99527.59
2023-01-19T20:51:21.019Z,99531.63
2023-01-19T20:53:48.996Z,99535.22
2023-01-19T20:56:18.432Z,99530.17
2023-01-19T20:58:46.307Z,99528.17
2023-01-19T21:01:20.518Z,99529.08
2023-01-19T21:03:49.049Z,99535.23
2023-01-19T21:06:18.169Z,99537.33
2023-01-19T21:08:46.465Z,99536.33
2023-01-19T21:11:14.396Z,99536.67
2023-01-19T21:13:42.348Z,99534.30
2023-01-19T21:16:10.336Z,99535.36
2023-01-19T21:18:38.330Z,99530.42
2023-01-19T21:21:07.099Z,99529.63
2023-01-19T21:23:37.103Z,99531.20
2023-01-19T21:26:05.090Z,99531.79
2023-01-19T21:28:33.321Z,99532.56
2023-01-19T21:31:06.823Z,99529.35
2023-01-19T21:33:34.884Z,99533.48
2023-01-19T21:36:02.679Z,99534.37
2023-01-19T21:38:30.470Z,99536.65
2023-01-19T21:40:58.751Z,99536.62
2023-01-19T21:43:26.692Z,99543.96
2023-01-19T21:45:54.671Z,99547.29
2023-01-19T21:48:22.660Z,99549.64
2023-01-19T21:50:57.631Z,99549.78
2023-01-19T21:53:25.420Z,99544.98
2023-01-19T21:55:53.381Z,99548.83
2023-01-19T21:58:23.389Z,99545.54
2023-01-19T22:00:51.303Z,99550.98
2023-01-19T22:03:19.153Z,99547.73
2023-01-19T22:05:47.106Z,99551.15
2023-01-19T22:08:14.970Z,99552.85
2023-01-19T22:10:42.731Z,99554.73
2023-01-19T22:13:10.526Z,99551.16
2023-01-19T22:15:38.387Z,99545.09
2023-01-19T22:18:06.185Z,99549.02
2023-01-19T22:20:34.019Z,99551.95
2023-01-19T22:23:01.795Z,99550.19
2023-01-19T22:25:32.635Z,99553.27
2023-01-19T22:28:00.479Z,99546.90
2023-01-19T22:30:28.322Z,99548.94
2023-01-19T22:32:56.239Z,99548.16
2023-01-19T22:35:24.030Z,99549.37
2023-01-19T22:37:51.844Z,99550.81
2023-01-19T22:40:20.133Z,99551.53
2023-01-19T22:42:48.484Z,99552.19
2023-01-19T22:45:16.430Z,99554.76
2023-01-19T22:47:44.196Z,99556.54
2023-01-19T22:50:12.002Z,99554.10
2023-01-19T22:52:39.762Z,99559.70
2023-01-19T22:55:07.993Z,99562.70
2023-01-19T22:57:36.738Z,99562.13
2023-01-19T23:00:06.816Z,99563.56
2023-01-19T23:02:34.637Z,99564.97
2023-01-19T23:05:02.748Z,99564.62
2023-01-19T23:07:30.555Z,99567.21
2023-01-19T23:09:58.297Z,99572.00
2023-01-19T23:12:26.088Z,99572.34
2023-01-19T23:14:53.908Z,99580.95
2023-01-19T23:17:21.710Z,99586.89
2023-01-19T23:19:49.454Z,99593.20
2023-01-19T23:22:17.199Z,99597.91
2023-01-19T23:24:45.060Z,99601.00
2023-01-19T23:27:12.791Z,99601.44
2023-01-19T23:29:40.787Z,99602.95
2023-01-19T23:32:08.502Z,99601.47
2023-01-19T23:34:36.256Z,99601.98
2023-01-19T23:37:04.073Z,99602.10
2023-01-19T23:39:31.939Z,99603.89
2023-01-19T23:41:59.651Z,99604.69
2023-01-19T23:44:27.430Z,99603.62
2023-01-19T23:46:55.867Z,99605.49
2023-01-19T23:49:24.824Z,99603.77
2023-01-19T23:51:52.648Z,99608.63
2023-01-19T23:54:20.413Z,99605.05
2023-01-19T23:56:48.166Z,99606.30
2023-01-19T23:59:16.563Z,99604.48
